createdAt,value
2019-05-11T00:02:29.337Z,4.40
2019-05-11T00:05:01.264Z,3.90
2019-05-11T00:07:30.370Z,5.33
2019-05-11T00:10:02.441Z,4.80
2019-05-11T00:12:37.468Z,3.80
2019-05-11T00:15:12.987Z,3.13
2019-05-11T00:17:42.104Z,3.80
2019-05-11T00:20:17.043Z,4.40
2019-05-11T00:22:48.295Z,4.47
2019-05-11T00:25:17.439Z,3.07
2019-05-11T00:27:46.634Z,3.80
2019-05-11T00:30:20.567Z,4.60
2019-05-11T00:32:51.015Z,3.63
2019-05-11T00:35:20.158Z,4.03
2019-05-11T00:37:52.324Z,4.70
2019-05-11T00:40:24.479Z,5.57
2019-05-11T00:42:53.549Z,3.83
2019-05-11T00:45:22.647Z,3.10
2019-05-11T00:47:53.203Z,4.37
2019-05-11T00:50:38.035Z,4.10
2019-05-11T00:53:03.722Z,6.50
2019-05-11T00:55:32.755Z,3.70
2019-05-11T00:58:01.882Z,5.70
2019-05-11T01:00:30.952Z,4.00
2019-05-11T01:03:00.034Z,3.30
2019-05-11T01:05:29.115Z,4.80
2019-05-11T01:08:01.699Z,3.37
2019-05-11T01:10:41.625Z,4.60
2019-05-11T01:13:02.548Z,4.53
2019-05-11T01:15:33.068Z,4.73
2019-05-11T01:18:09.757Z,3.90
2019-05-11T01:20:40.489Z,4.43
2019-05-11T01:23:09.603Z,4.10
2019-05-11T01:25:38.758Z,3.80
2019-05-11T01:28:07.895Z,3.20
2019-05-11T01:30:42.785Z,5.10
2019-05-11T01:33:11.835Z,3.50
2019-05-11T01:35:40.889Z,4.37
2019-05-11T01:38:09.953Z,5.80
2019-05-11T01:40:38.989Z,4.00
2019-05-11T01:43:08.075Z,4.20
2019-05-11T01:45:39.153Z,4.33
2019-05-11T01:48:08.215Z,4.40
2019-05-11T01:50:37.380Z,6.20
2019-05-11T01:53:12.111Z,6.83
2019-05-11T01:55:41.321Z,5.50
2019-05-11T01:58:10.397Z,5.07
2019-05-11T02:00:39.518Z,5.00
2019-05-11T02:03:08.637Z,4.37
2019-05-11T02:05:39.130Z,3.90
2019-05-11T02:08:12.853Z,6.00
2019-05-11T02:10:43.046Z,6.73
2019-05-11T02:13:17.696Z,5.90
2019-05-11T02:15:46.791Z,5.10
2019-05-11T02:18:15.913Z,4.90
2019-05-11T02:20:45.168Z,4.77
2019-05-11T02:23:14.313Z,4.10
2019-05-11T02:25:43.327Z,3.90
2019-05-11T02:28:13.487Z,3.57
2019-05-11T02:30:46.330Z,3.40
2019-05-11T02:33:16.016Z,5.20
2019-05-11T02:35:50.532Z,4.93
2019-05-11T02:38:21.285Z,5.73
2019-05-11T02:40:50.384Z,4.70
2019-05-11T02:43:22.705Z,4.60
2019-05-11T02:45:55.410Z,4.40
2019-05-11T02:48:29.047Z,8.93
2019-05-11T02:50:59.431Z,3.93
2019-05-11T02:53:42.644Z,4.83
2019-05-11T02:56:16.888Z,5.57
2019-05-11T02:58:46.877Z,6.07
2019-05-11T03:01:16.048Z,5.57
2019-05-11T03:03:45.091Z,9.73
2019-05-11T03:06:14.159Z,4.90
2019-05-11T03:08:43.227Z,4.83
2019-05-11T03:11:12.327Z,6.33
2019-05-11T03:13:41.372Z,7.30
2019-05-11T03:16:11.813Z,4.43
2019-05-11T03:18:42.780Z,5.10
2019-05-11T03:21:14.439Z,5.40
2019-05-11T03:23:43.615Z,5.10
2019-05-11T03:26:12.650Z,5.47
2019-05-11T03:28:41.690Z,5.57
2019-05-11T03:31:10.744Z,4.77
2019-05-11T03:33:39.825Z,5.90
2019-05-11T03:36:08.919Z,5.13
2019-05-11T03:38:37.964Z,9.87
2019-05-11T03:41:07.108Z,6.03
2019-05-11T03:43:36.606Z,4.20
2019-05-11T03:46:08.206Z,6.13
2019-05-11T03:48:37.277Z,4.47
2019-05-11T03:51:06.328Z,5.23
2019-05-11T03:53:35.358Z,4.50
2019-05-11T03:56:04.424Z,6.10
2019-05-11T03:58:33.512Z,4.60
2019-05-11T04:01:02.601Z,5.77
2019-05-11T04:03:31.638Z,6.40
2019-05-11T04:06:00.699Z,4.60
2019-05-11T04:08:30.060Z,6.50
2019-05-11T04:10:59.087Z,4.70
2019-05-11T04:13:33.343Z,3.83
2019-05-11T04:16:04.820Z,4.40
2019-05-11T04:18:34.925Z,3.60
2019-05-11T04:21:04.009Z,5.57
2019-05-11T04:23:37.243Z,4.67
2019-05-11T04:26:06.484Z,5.27
2019-05-11T04:28:39.219Z,3.43
2019-05-11T04:31:08.302Z,5.73
2019-05-11T04:33:37.401Z,9.27
2019-05-11T04:36:08.175Z,3.57
2019-05-11T04:38:42.353Z,4.27
2019-05-11T04:41:14.394Z,4.63
2019-05-11T04:43:43.753Z,3.40
2019-05-11T04:46:17.566Z,4.97
2019-05-11T04:48:46.660Z,4.53
2019-05-11T04:51:15.762Z,3.33
2019-05-11T04:53:44.804Z,3.83
2019-05-11T04:56:13.880Z,4.27
2019-05-11T04:58:42.928Z,4.20
2019-05-11T05:01:12.011Z,5.27
2019-05-11T05:03:46.930Z,3.47
2019-05-11T05:06:24.339Z,3.37
2019-05-11T05:08:58.220Z,3.23
2019-05-11T05:11:24.294Z,4.40
2019-05-11T05:13:53.793Z,3.30
2019-05-11T05:16:26.398Z,3.87
2019-05-11T05:18:55.459Z,5.23
2019-05-11T05:21:24.505Z,4.53
2019-05-11T05:23:57.303Z,4.90
2019-05-11T05:26:32.468Z,5.33
2019-05-11T05:29:04.350Z,3.53
2019-05-11T05:31:36.005Z,4.47
2019-05-11T05:34:05.049Z,3.60
2019-05-11T05:36:35.821Z,4.00
2019-05-11T05:39:09.268Z,4.17
2019-05-11T05:41:38.799Z,3.33
2019-05-11T05:44:13.812Z,3.80
2019-05-11T05:46:42.925Z,3.70
2019-05-11T05:49:18.027Z,5.13
2019-05-11T05:51:47.227Z,4.13
2019-05-11T05:54:16.373Z,4.33
2019-05-11T05:56:45.430Z,4.27
2019-05-11T05:59:14.479Z,5.00
2019-05-11T06:01:43.571Z,5.20
2019-05-11T06:04:12.958Z,4.77
2019-05-11T06:06:43.525Z,3.03
2019-05-11T06:09:12.651Z,5.37
2019-05-11T06:11:41.901Z,3.90
2019-05-11T06:14:12.392Z,3.70
2019-05-11T06:16:41.383Z,5.03
2019-05-11T06:19:10.668Z,4.37
2019-05-11T06:21:42.570Z,3.60
2019-05-11T06:24:14.064Z,4.30
2019-05-11T06:26:43.264Z,4.10
2019-05-11T06:29:12.319Z,5.60
2019-05-11T06:31:41.393Z,4.50
2019-05-11T06:34:11.765Z,4.43
2019-05-11T06:36:45.343Z,3.60
2019-05-11T06:39:15.916Z,3.70
2019-05-11T06:41:45.035Z,3.97
2019-05-11T06:44:16.095Z,6.50
2019-05-11T06:46:47.967Z,4.17
2019-05-11T06:49:23.104Z,4.00
2019-05-11T06:51:59.421Z,4.07
2019-05-11T06:54:30.205Z,4.40
2019-05-11T06:57:02.949Z,4.53
2019-05-11T06:59:33.360Z,3.97
2019-05-11T07:02:06.713Z,4.23
2019-05-11T07:04:35.820Z,4.03
2019-05-11T07:07:04.900Z,5.50
2019-05-11T07:09:34.325Z,5.70
2019-05-11T07:12:03.433Z,3.87
2019-05-11T07:14:32.591Z,5.30
2019-05-11T07:17:01.676Z,4.83
2019-05-11T07:19:30.837Z,3.03
2019-05-11T07:22:02.278Z,3.10
2019-05-11T07:24:31.595Z,2.93
2019-05-11T07:27:00.713Z,4.03
2019-05-11T07:29:29.818Z,5.17
2019-05-11T07:32:05.528Z,4.27
2019-05-11T07:34:39.883Z,4.50
2019-05-11T07:37:09.031Z,8.03
2019-05-11T07:39:38.438Z,5.10
2019-05-11T07:42:07.877Z,3.60
2019-05-11T07:44:41.906Z,3.07
2019-05-11T07:47:11.260Z,7.80
2019-05-11T07:49:40.436Z,4.80
2019-05-11T07:52:09.588Z,2.70
2019-05-11T07:54:39.785Z,4.63
2019-05-11T07:57:08.848Z,5.57
2019-05-11T07:59:39.215Z,2.90
2019-05-11T08:02:12.983Z,3.20
2019-05-11T08:04:44.398Z,3.00
2019-05-11T08:07:18.078Z,2.70
2019-05-11T08:09:48.516Z,2.50
2019-05-11T08:12:20.577Z,3.03
2019-05-11T08:14:57.771Z,2.20
2019-05-11T08:17:25.008Z,2.63
2019-05-11T08:19:54.065Z,2.60
2019-05-11T08:22:23.184Z,2.10
2019-05-11T08:24:52.227Z,3.43
2019-05-11T08:27:21.724Z,3.13
2019-05-11T08:29:53.259Z,4.13
2019-05-11T08:32:22.363Z,3.50
2019-05-11T08:34:51.493Z,2.97
2019-05-11T08:37:20.548Z,2.43
2019-05-11T08:39:49.823Z,4.03
2019-05-11T08:42:18.866Z,2.37
2019-05-11T08:44:48.392Z,3.50
2019-05-11T08:47:17.911Z,4.70
2019-05-11T08:49:48.898Z,3.37
2019-05-11T08:52:18.630Z,2.00
2019-05-11T08:54:48.672Z,4.10
2019-05-11T08:57:19.818Z,3.90
2019-05-11T08:59:48.964Z,2.60
2019-05-11T09:02:18.714Z,2.27
2019-05-11T09:04:48.531Z,5.60
2019-05-11T09:07:18.424Z,2.73
2019-05-11T09:09:48.509Z,9.07
2019-05-11T09:12:18.955Z,6.53
2019-05-11T09:14:51.310Z,3.13
2019-05-11T09:17:20.770Z,2.23
2019-05-11T09:19:50.954Z,1.50
2019-05-11T09:22:24.159Z,1.63
2019-05-11T09:24:53.379Z,1.40
2019-05-11T09:27:23.283Z,2.23
2019-05-11T09:30:19.193Z,1.70
2019-05-11T09:32:51.147Z,3.50
2019-05-11T09:35:20.198Z,2.63
2019-05-11T09:37:52.545Z,2.03
2019-05-11T09:40:28.449Z,1.47
2019-05-11T09:43:00.329Z,1.70
2019-05-11T09:45:44.658Z,1.70
2019-05-11T09:48:04.320Z,1.87
2019-05-11T09:50:33.401Z,1.73
2019-05-11T09:53:02.475Z,2.77
2019-05-11T09:55:31.879Z,1.87
2019-05-11T09:58:03.054Z,2.80
2019-05-11T10:00:34.847Z,1.83
2019-05-11T10:03:03.930Z,2.30
2019-05-11T10:05:34.574Z,2.73
2019-05-11T10:08:03.735Z,2.30
2019-05-11T10:10:32.828Z,3.10
2019-05-11T10:13:01.930Z,1.60
2019-05-11T10:15:31.958Z,1.40
2019-05-11T10:18:02.836Z,4.80
2019-05-11T10:20:39.044Z,1.60
2019-05-11T10:23:08.484Z,2.37
2019-05-11T10:25:39.085Z,1.50
2019-05-11T10:28:09.749Z,1.90
2019-05-11T10:30:38.844Z,1.83
2019-05-11T10:33:10.821Z,1.73
2019-05-11T10:35:44.896Z,2.20
2019-05-11T10:38:14.000Z,3.63
2019-05-11T10:40:48.065Z,3.00
2019-05-11T10:43:19.709Z,8.13
2019-05-11T10:45:49.170Z,2.33
2019-05-11T10:48:20.771Z,1.60
2019-05-11T10:50:49.877Z,2.63
2019-05-11T10:53:18.938Z,3.40
2019-05-11T10:55:48.104Z,1.33
2019-05-11T10:58:18.435Z,1.50
2019-05-11T11:00:48.204Z,1.40
2019-05-11T11:03:20.438Z,1.90
2019-05-11T11:05:52.104Z,2.63
2019-05-11T11:08:21.238Z,1.50
2019-05-11T11:10:51.639Z,1.33
2019-05-11T11:13:21.657Z,1.30
2019-05-11T11:15:52.600Z,1.57
2019-05-11T11:18:24.585Z,1.77
2019-05-11T11:20:54.080Z,1.30
2019-05-11T11:23:24.863Z,3.87
2019-05-11T11:25:53.946Z,1.87
2019-05-11T11:28:25.134Z,1.67
2019-05-11T11:30:54.885Z,1.70
2019-05-11T11:33:27.532Z,2.13
2019-05-11T11:35:57.976Z,1.77
2019-05-11T11:38:28.576Z,3.10
2019-05-11T11:40:58.715Z,2.23
2019-05-11T11:43:28.796Z,1.93
2019-05-11T11:45:59.387Z,1.43
2019-05-11T11:48:30.187Z,3.03
2019-05-11T11:50:59.339Z,1.47
2019-05-11T11:53:28.405Z,1.60
2019-05-11T11:55:58.740Z,3.60
2019-05-11T11:58:31.841Z,2.50
2019-05-11T12:01:01.677Z,4.50
2019-05-11T12:03:31.442Z,1.80
2019-05-11T12:06:10.700Z,1.40
2019-05-11T12:08:40.021Z,2.23
2019-05-11T12:11:09.113Z,2.13
2019-05-11T12:13:38.519Z,1.70
2019-05-11T12:16:07.883Z,2.43
2019-05-11T12:18:38.115Z,1.60
2019-05-11T12:21:08.001Z,2.13
2019-05-11T12:23:38.139Z,1.73
2019-05-11T12:26:08.538Z,2.30
2019-05-11T12:28:38.345Z,1.70
2019-05-11T12:31:08.919Z,2.33
2019-05-11T12:33:41.318Z,1.90
2019-05-11T12:36:18.753Z,1.93
2019-05-11T12:38:48.556Z,1.37
2019-05-11T12:41:19.023Z,1.50
2019-05-11T12:43:51.398Z,3.30
2019-05-11T12:46:27.668Z,3.40
2019-05-11T12:48:59.110Z,1.60
2019-05-11T12:51:30.938Z,2.27
2019-05-11T12:54:00.344Z,1.97
2019-05-11T12:56:30.979Z,1.20
2019-05-11T12:59:00.025Z,2.67
2019-05-11T13:01:29.396Z,1.90
2019-05-11T13:04:01.624Z,2.30
2019-05-11T13:06:30.982Z,2.17
2019-05-11T13:09:00.164Z,1.53
2019-05-11T13:11:30.502Z,2.10
2019-05-11T13:14:01.513Z,1.67
2019-05-11T13:16:31.904Z,2.03
2019-05-11T13:19:01.326Z,1.70
2019-05-11T13:21:35.145Z,2.07
2019-05-11T13:24:08.417Z,16.93
2019-05-11T13:26:40.457Z,1.97
2019-05-11T13:29:09.892Z,2.60
2019-05-11T13:31:39.880Z,1.27
2019-05-11T13:34:08.961Z,2.20
2019-05-11T13:36:38.435Z,1.80
2019-05-11T13:39:09.148Z,1.33
2019-05-11T13:41:39.039Z,2.03
2019-05-11T13:44:10.065Z,1.50
2019-05-11T13:46:42.127Z,3.57
2019-05-11T13:49:14.191Z,1.50
2019-05-11T13:51:43.392Z,2.00
2019-05-11T13:54:12.504Z,2.00
2019-05-11T13:56:42.496Z,2.77
2019-05-11T13:59:11.876Z,1.33
2019-05-11T14:01:41.729Z,2.10
2019-05-11T14:04:12.073Z,3.60
2019-05-11T14:06:47.971Z,1.70
2019-05-11T14:09:18.448Z,1.73
2019-05-11T14:11:48.252Z,2.10
2019-05-11T14:14:19.371Z,3.33
2019-05-11T14:16:49.315Z,1.80
2019-05-11T14:19:19.862Z,1.30
2019-05-11T14:21:53.572Z,1.70
2019-05-11T14:24:23.289Z,1.97
2019-05-11T14:26:53.742Z,2.40
2019-05-11T14:29:27.730Z,1.63
2019-05-11T14:32:00.782Z,3.50
2019-05-11T14:34:35.507Z,2.47
2019-05-11T14:37:05.975Z,1.37
2019-05-11T14:39:38.350Z,1.40
2019-05-11T14:42:10.126Z,2.20
2019-05-11T14:44:43.487Z,1.47
2019-05-11T14:47:17.756Z,1.50
2019-05-11T14:49:48.380Z,1.70
2019-05-11T14:52:20.649Z,1.90
2019-05-11T14:54:52.695Z,2.50
2019-05-11T14:57:21.813Z,1.97
2019-05-11T15:00:05.142Z,1.63
2019-05-11T15:02:49.365Z,1.50
2019-05-11T15:05:20.597Z,1.57
2019-05-11T15:07:54.344Z,2.23
2019-05-11T15:10:27.745Z,2.37
2019-05-11T15:13:00.444Z,2.90
2019-05-11T15:15:29.496Z,2.43
2019-05-11T15:18:01.538Z,1.90
2019-05-11T15:20:30.624Z,2.80
2019-05-11T15:22:59.709Z,2.37
2019-05-11T15:25:29.087Z,1.83
2019-05-11T15:28:00.830Z,1.90
2019-05-11T15:30:30.401Z,2.53
2019-05-11T15:32:59.943Z,2.30
2019-05-11T15:35:30.928Z,3.40
2019-05-11T15:38:01.059Z,3.33
2019-05-11T15:40:30.291Z,2.23
2019-05-11T15:43:00.497Z,4.60
2019-05-11T15:45:30.644Z,3.20
2019-05-11T15:47:59.821Z,1.63
2019-05-11T15:50:30.404Z,1.80
2019-05-11T15:52:59.699Z,1.93
2019-05-11T15:55:28.777Z,1.40
2019-05-11T15:57:59.270Z,2.70
2019-05-11T16:00:30.238Z,2.40
2019-05-11T16:03:03.598Z,2.40
2019-05-11T16:05:32.732Z,2.03
2019-05-11T16:08:01.901Z,6.87
2019-05-11T16:10:31.714Z,2.60
2019-05-11T16:13:00.987Z,3.60
2019-05-11T16:15:30.105Z,2.70
2019-05-11T16:17:59.114Z,3.10
2019-05-11T16:20:30.312Z,5.00
2019-05-11T16:23:00.272Z,4.60
2019-05-11T16:25:29.334Z,4.47
2019-05-11T16:28:04.644Z,4.10
2019-05-11T16:30:29.330Z,3.67
2019-05-11T16:33:03.506Z,3.97
2019-05-11T16:35:32.537Z,5.13
2019-05-11T16:38:01.641Z,4.60
2019-05-11T16:40:33.295Z,6.60
2019-05-11T16:43:01.635Z,8.83
2019-05-11T16:45:30.732Z,6.27
2019-05-11T16:47:59.826Z,6.80
2019-05-11T16:50:33.126Z,8.20
2019-05-11T16:53:06.051Z,8.07
2019-05-11T16:55:35.089Z,7.13
2019-05-11T16:58:04.174Z,8.33
2019-05-11T17:00:33.202Z,7.33
2019-05-11T17:03:04.297Z,6.80
2019-05-11T17:05:38.296Z,7.07
2019-05-11T17:08:08.505Z,6.93
2019-05-11T17:10:38.783Z,7.60
2019-05-11T17:13:09.649Z,7.43
2019-05-11T17:15:39.430Z,7.60
2019-05-11T17:18:08.547Z,7.07
2019-05-11T17:20:37.682Z,6.57
2019-05-11T17:23:06.732Z,7.10
2019-05-11T17:25:37.807Z,9.10
2019-05-11T17:28:11.182Z,6.70
2019-05-11T17:30:41.977Z,7.23
2019-05-11T17:33:11.055Z,10.60
2019-05-11T17:35:41.267Z,6.90
2019-05-11T17:38:12.022Z,8.13
2019-05-11T17:40:41.065Z,7.83
2019-05-11T17:43:10.248Z,7.00
2019-05-11T17:45:39.308Z,6.73
2019-05-11T17:48:08.614Z,5.93
2019-05-11T17:50:38.550Z,8.57
2019-05-11T17:53:07.793Z,7.20
2019-05-11T17:55:38.459Z,5.70
2019-05-11T17:58:08.712Z,5.27
2019-05-11T18:00:41.019Z,6.73
2019-05-11T18:03:11.388Z,6.80
2019-05-11T18:05:41.548Z,5.13
2019-05-11T18:08:18.763Z,7.10
2019-05-11T18:10:48.036Z,4.90
2019-05-11T18:13:17.038Z,4.70
2019-05-11T18:15:49.338Z,5.70
2019-05-11T18:18:19.578Z,6.77
2019-05-11T18:20:52.114Z,6.97
2019-05-11T18:23:21.561Z,4.87
2019-05-11T18:25:50.655Z,5.83
2019-05-11T18:28:22.428Z,7.60
2019-05-11T18:30:51.511Z,5.93
2019-05-11T18:33:23.086Z,5.03
2019-05-11T18:35:52.598Z,7.33
2019-05-11T18:38:21.651Z,5.10
2019-05-11T18:40:51.929Z,7.87
2019-05-11T18:43:22.160Z,8.80
2019-05-11T18:45:51.238Z,6.63
2019-05-11T18:48:23.612Z,7.10
2019-05-11T18:50:56.265Z,9.00
2019-05-11T18:53:28.836Z,9.00
2019-05-11T18:56:03.984Z,7.83
2019-05-11T18:58:33.111Z,9.07
2019-05-11T19:01:02.234Z,10.30
2019-05-11T19:03:31.289Z,9.43
2019-05-11T19:06:00.319Z,10.40
2019-05-11T19:08:29.442Z,10.13
2019-05-11T19:10:58.510Z,9.90
2019-05-11T19:13:28.461Z,10.90
2019-05-11T19:15:58.318Z,9.07
2019-05-11T19:18:28.137Z,8.40
2019-05-11T19:20:58.581Z,13.67
2019-05-11T19:23:29.481Z,10.23
2019-05-11T19:26:01.507Z,11.30
2019-05-11T19:28:33.780Z,11.50
2019-05-11T19:31:02.973Z,7.83
2019-05-11T19:33:32.492Z,9.50
2019-05-11T19:36:04.263Z,10.50
2019-05-11T19:38:34.484Z,12.30
2019-05-11T19:41:08.691Z,10.07
2019-05-11T19:43:38.617Z,10.83
2019-05-11T19:46:08.906Z,12.40
2019-05-11T19:48:38.585Z,11.93
2019-05-11T19:51:13.538Z,10.90
2019-05-11T19:53:42.610Z,13.50
2019-05-11T19:56:15.155Z,11.57
2019-05-11T19:58:42.881Z,9.90
2019-05-11T20:01:12.090Z,12.90
2019-05-11T20:03:44.675Z,11.77
2019-05-11T20:06:13.816Z,10.67
2019-05-11T20:08:42.844Z,12.10
2019-05-11T20:11:11.961Z,14.90
2019-05-11T20:13:41.012Z,10.70
2019-05-11T20:16:10.037Z,10.10
2019-05-11T20:18:42.086Z,14.80
2019-05-11T20:21:19.270Z,12.00
2019-05-11T20:23:48.516Z,8.90
2019-05-11T20:26:20.340Z,8.93
2019-05-11T20:28:49.387Z,8.30
2019-05-11T20:31:18.544Z,8.73
2019-05-11T20:33:47.809Z,11.27
2019-05-11T20:36:17.775Z,9.50
2019-05-11T20:38:47.639Z,10.27
2019-05-11T20:41:17.953Z,9.60
2019-05-11T20:43:46.987Z,8.73
2019-05-11T20:46:18.329Z,14.50
2019-05-11T20:48:48.559Z,10.70
2019-05-11T20:51:33.199Z,11.80
2019-05-11T20:53:53.953Z,12.43
2019-05-11T20:56:23.125Z,8.80
2019-05-11T20:58:59.995Z,9.07
2019-05-11T21:01:29.237Z,7.73
2019-05-11T21:03:58.736Z,10.20
2019-05-11T21:06:30.030Z,10.80
2019-05-11T21:09:02.168Z,9.13
2019-05-11T21:11:33.956Z,10.50
2019-05-11T21:14:04.567Z,8.57
2019-05-11T21:16:33.650Z,7.80
2019-05-11T21:19:03.550Z,9.70
2019-05-11T21:21:46.345Z,9.83
2019-05-11T21:24:10.690Z,10.53
2019-05-11T21:26:39.858Z,7.00
2019-05-11T21:29:08.917Z,7.57
2019-05-11T21:31:40.549Z,10.30
2019-05-11T21:34:18.154Z,6.50
2019-05-11T21:36:48.323Z,8.80
2019-05-11T21:39:18.949Z,10.47
2019-05-11T21:41:48.292Z,9.50
2019-05-11T21:44:18.916Z,8.40
2019-05-11T21:46:49.431Z,10.93
2019-05-11T21:49:18.696Z,8.37
2019-05-11T21:52:03.537Z,8.63
2019-05-11T21:54:21.725Z,8.73
2019-05-11T21:56:52.060Z,12.50
2019-05-11T21:59:21.066Z,12.77
2019-05-11T22:01:51.670Z,9.67
2019-05-11T22:04:20.850Z,11.07
2019-05-11T22:06:49.938Z,10.30
2019-05-11T22:09:18.994Z,12.03
2019-05-11T22:11:48.855Z,9.40
2019-05-11T22:14:17.990Z,9.93
2019-05-11T22:16:48.014Z,9.73
2019-05-11T22:19:17.798Z,8.40
2019-05-11T22:21:49.474Z,16.33
2019-05-11T22:24:21.106Z,10.43
2019-05-11T22:26:50.283Z,9.70
2019-05-11T22:29:22.140Z,9.97
2019-05-11T22:31:51.234Z,13.83
2019-05-11T22:34:28.495Z,10.70
2019-05-11T22:36:58.211Z,8.97
2019-05-11T22:39:28.663Z,10.77
2019-05-11T22:41:58.937Z,8.00
2019-05-11T22:44:29.282Z,8.70
2019-05-11T22:47:01.613Z,10.23
2019-05-11T22:49:30.952Z,21.13
2019-05-11T22:52:00.007Z,7.63
2019-05-11T22:54:30.520Z,8.87
2019-05-11T22:57:02.050Z,10.13
2019-05-11T22:59:31.571Z,10.30
2019-05-11T23:02:02.008Z,10.93
2019-05-11T23:04:38.052Z,9.63
2019-05-11T23:07:10.238Z,11.17
2019-05-11T23:09:42.302Z,13.23
2019-05-11T23:12:14.550Z,13.50
2019-05-11T23:14:44.615Z,13.47
2019-05-11T23:17:13.696Z,10.87
2019-05-11T23:19:42.738Z,10.80
2019-05-11T23:22:11.833Z,11.83
2019-05-11T23:24:40.864Z,8.53
2019-05-11T23:27:09.956Z,9.57
2019-05-11T23:29:39.000Z,12.40
2019-05-11T23:32:08.661Z,9.37
2019-05-11T23:34:40.994Z,14.33
2019-05-11T23:37:13.052Z,13.20
2019-05-11T23:39:42.162Z,11.93
2019-05-11T23:42:11.530Z,13.80
2019-05-11T23:44:45.600Z,9.70
2019-05-11T23:47:19.987Z,9.27
2019-05-11T23:49:51.229Z,11.23
2019-05-11T23:52:29.424Z,12.00
2019-05-11T23:54:59.520Z,11.47
2019-05-11T23:57:28.716Z,16.63
